createdAt,value
2023-03-30T00:01:55.817Z,78.25
2023-03-30T00:04:27.994Z,78.38
2023-03-30T00:07:00.063Z,78.16
2023-03-30T00:09:33.351Z,78.12
2023-03-30T00:12:05.486Z,78.21
2023-03-30T00:14:39.699Z,78.33
2023-03-30T00:17:12.167Z,78.23
2023-03-30T00:19:44.267Z,78.17
2023-03-30T00:22:16.853Z,78.16
2023-03-30T00:24:49.068Z,78.08
2023-03-30T00:27:21.668Z,78.06
2023-03-30T00:29:54.068Z,77.96
2023-03-30T00:32:26.287Z,78.00
2023-03-30T00:34:58.451Z,77.97
2023-03-30T00:37:30.972Z,77.92
2023-03-30T00:40:04.421Z,77.69
2023-03-30T00:42:37.177Z,77.54
2023-03-30T00:45:28.152Z,77.68
2023-03-30T00:48:25.950Z,77.90
2023-03-30T00:51:01.666Z,77.97
2023-03-30T00:53:39.950Z,77.94
2023-03-30T00:56:15.230Z,78.03
2023-03-30T00:58:48.197Z,77.95
2023-03-30T01:01:23.117Z,78.07
2023-03-30T01:04:00.162Z,77.95
2023-03-30T01:06:34.035Z,78.09
2023-03-30T01:09:07.094Z,78.18
2023-03-30T01:11:39.786Z,78.31
2023-03-30T01:14:16.674Z,77.94
2023-03-30T01:17:01.873Z,78.12
2023-03-30T01:19:39.713Z,77.56
2023-03-30T01:22:37.994Z,77.07
2023-03-30T01:25:41.783Z,77.65
2023-03-30T01:28:26.274Z,77.92
2023-03-30T01:31:16.257Z,78.30
2023-03-30T01:34:10.351Z,78.14
2023-03-30T01:37:03.442Z,78.02
2023-03-30T01:40:06.714Z,78.34
2023-03-30T01:43:08.618Z,78.62
2023-03-30T01:45:52.564Z,78.86
2023-03-30T01:48:31.328Z,79.59
2023-03-30T01:51:06.917Z,79.77
2023-03-30T01:53:44.564Z,79.45
2023-03-30T01:56:22.559Z,78.89
2023-03-30T01:59:00.313Z,78.45
2023-03-30T02:01:35.040Z,78.28
2023-03-30T02:04:10.452Z,78.79
2023-03-30T02:06:51.788Z,78.55
2023-03-30T02:09:27.405Z,78.44
2023-03-30T02:12:01.271Z,78.24
2023-03-30T02:14:36.729Z,77.59
2023-03-30T02:17:23.704Z,76.91
2023-03-30T02:19:57.519Z,76.01
2023-03-30T02:22:29.866Z,75.78
2023-03-30T02:25:03.473Z,74.79
2023-03-30T02:27:36.938Z,74.71
2023-03-30T02:30:09.906Z,73.82
2023-03-30T02:32:45.298Z,73.50
2023-03-30T02:35:32.009Z,73.95
2023-03-30T02:38:07.491Z,73.60
2023-03-30T02:40:58.962Z,73.96
2023-03-30T02:43:42.856Z,74.40
2023-03-30T02:46:36.755Z,73.15
2023-03-30T02:49:18.029Z,72.66
2023-03-30T02:51:54.589Z,71.89
2023-03-30T02:54:37.244Z,71.77
2023-03-30T02:57:31.545Z,71.83
2023-03-30T03:00:33.573Z,71.96
2023-03-30T03:03:10.331Z,72.30
2023-03-30T03:05:43.705Z,72.90
2023-03-30T03:08:19.073Z,73.10
2023-03-30T03:10:53.168Z,72.94
2023-03-30T03:13:25.317Z,72.81
2023-03-30T03:15:57.544Z,72.94
2023-03-30T03:18:31.616Z,72.86
2023-03-30T03:21:04.367Z,73.96
2023-03-30T03:23:38.778Z,74.19
2023-03-30T03:26:25.303Z,74.40
2023-03-30T03:28:58.475Z,73.80
2023-03-30T03:31:30.626Z,73.67
2023-03-30T03:34:04.209Z,74.90
2023-03-30T03:36:40.954Z,75.37
2023-03-30T03:39:13.352Z,75.57
2023-03-30T03:41:45.664Z,75.53
2023-03-30T03:44:17.842Z,75.13
2023-03-30T03:46:50.210Z,75.10
2023-03-30T03:49:22.694Z,74.55
2023-03-30T03:51:54.958Z,74.44
2023-03-30T03:54:27.245Z,74.03
2023-03-30T03:56:59.628Z,74.05
2023-03-30T03:59:32.091Z,73.66
2023-03-30T04:02:05.778Z,72.93
2023-03-30T04:04:38.003Z,72.34
2023-03-30T04:07:10.173Z,72.02
2023-03-30T04:09:42.380Z,71.93
2023-03-30T04:12:16.267Z,71.91
2023-03-30T04:15:07.566Z,71.08
2023-03-30T04:17:47.316Z,70.35
2023-03-30T04:20:21.858Z,70.34
2023-03-30T04:23:13.002Z,69.92
2023-03-30T04:25:52.888Z,69.25
2023-03-30T04:28:36.769Z,69.58
2023-03-30T04:31:14.040Z,69.47
2023-03-30T04:33:52.681Z,69.25
2023-03-30T04:36:45.457Z,69.14
2023-03-30T04:39:34.789Z,68.84
2023-03-30T04:42:10.574Z,68.92
2023-03-30T04:44:53.244Z,69.07
2023-03-30T04:47:28.804Z,67.86
2023-03-30T04:50:02.969Z,68.08
2023-03-30T04:52:52.710Z,68.34
2023-03-30T04:55:41.933Z,67.84
2023-03-30T04:58:15.927Z,67.57
2023-03-30T05:00:49.763Z,67.41
2023-03-30T05:03:41.815Z,67.30
2023-03-30T05:06:21.883Z,66.45
2023-03-30T05:08:58.625Z,65.56
2023-03-30T05:11:42.319Z,65.09
2023-03-30T05:14:25.766Z,64.83
2023-03-30T05:16:59.571Z,64.66
2023-03-30T05:19:40.260Z,64.21
2023-03-30T05:22:32.884Z,63.37
2023-03-30T05:25:07.499Z,63.02
2023-03-30T05:27:58.247Z,63.50
2023-03-30T05:30:32.926Z,62.47
2023-03-30T05:33:13.264Z,62.03
2023-03-30T05:36:06.315Z,62.22
2023-03-30T05:38:47.701Z,62.04
2023-03-30T05:41:28.282Z,60.89
2023-03-30T05:44:08.209Z,60.95
2023-03-30T05:46:45.424Z,59.95
2023-03-30T05:49:25.627Z,60.76
2023-03-30T05:52:05.864Z,59.37
2023-03-30T05:54:56.107Z,60.21
2023-03-30T05:57:39.316Z,59.82
2023-03-30T06:00:18.625Z,59.97
2023-03-30T06:02:54.636Z,60.15
2023-03-30T06:05:28.498Z,59.38
2023-03-30T06:08:01.144Z,59.78
2023-03-30T06:10:33.642Z,59.71
2023-03-30T06:13:06.887Z,60.14
2023-03-30T06:15:46.436Z,59.72
2023-03-30T06:18:20.826Z,59.34
2023-03-30T06:20:54.752Z,59.61
2023-03-30T06:23:29.481Z,59.15
2023-03-30T06:26:02.985Z,58.82
2023-03-30T06:28:37.102Z,58.60
2023-03-30T06:31:10.876Z,58.84
2023-03-30T06:33:44.473Z,58.29
2023-03-30T06:36:20.834Z,58.02
2023-03-30T06:38:55.703Z,58.28
2023-03-30T06:41:28.400Z,56.35
2023-03-30T06:44:00.985Z,56.58
2023-03-30T06:46:35.215Z,56.96
2023-03-30T06:49:09.176Z,56.35
2023-03-30T06:51:49.962Z,56.50
2023-03-30T06:54:23.419Z,55.31
2023-03-30T06:56:57.392Z,54.04
2023-03-30T06:59:31.428Z,53.95
2023-03-30T07:02:23.200Z,53.85
2023-03-30T07:04:58.151Z,54.30
2023-03-30T07:07:37.597Z,52.67
2023-03-30T07:10:11.120Z,52.49
2023-03-30T07:12:43.845Z,54.89
2023-03-30T07:15:18.268Z,51.55
2023-03-30T07:17:52.031Z,50.69
2023-03-30T07:20:29.705Z,51.00
2023-03-30T07:23:07.563Z,50.98
2023-03-30T07:25:42.901Z,50.10
2023-03-30T07:28:17.559Z,51.09
2023-03-30T07:30:53.114Z,49.88
2023-03-30T07:33:27.240Z,48.15
2023-03-30T07:35:59.762Z,50.47
2023-03-30T07:38:32.785Z,48.52
2023-03-30T07:41:10.516Z,47.44
2023-03-30T07:43:43.903Z,47.72
2023-03-30T07:46:16.377Z,48.22
2023-03-30T07:48:50.948Z,47.29
2023-03-30T07:51:28.066Z,47.67
2023-03-30T07:54:12.301Z,49.24
2023-03-30T07:56:47.902Z,49.80
2023-03-30T07:59:22.255Z,51.32
2023-03-30T08:01:59.662Z,51.55
2023-03-30T08:04:37.850Z,52.60
2023-03-30T08:07:12.444Z,53.85
2023-03-30T08:09:46.000Z,54.83
2023-03-30T08:12:18.383Z,54.48
2023-03-30T08:14:50.992Z,54.26
2023-03-30T08:17:26.957Z,55.04
2023-03-30T08:20:07.822Z,55.14
2023-03-30T08:22:41.742Z,55.62
2023-03-30T08:25:14.262Z,56.95
2023-03-30T08:27:48.148Z,56.59
2023-03-30T08:30:22.187Z,55.53
2023-03-30T08:32:55.591Z,55.94
2023-03-30T08:35:30.450Z,55.43
2023-03-30T08:38:04.578Z,54.62
2023-03-30T08:40:42.617Z,54.61
2023-03-30T08:43:32.699Z,54.95
2023-03-30T08:46:06.273Z,54.34
2023-03-30T08:48:43.075Z,54.87
2023-03-30T08:51:28.299Z,54.76
2023-03-30T08:54:09.082Z,54.54
2023-03-30T08:56:45.139Z,54.92
2023-03-30T08:59:25.812Z,55.67
2023-03-30T09:02:01.139Z,56.88
2023-03-30T09:04:39.298Z,57.31
2023-03-30T09:07:26.954Z,57.76
2023-03-30T09:10:00.987Z,58.93
2023-03-30T09:12:56.393Z,59.70
2023-03-30T09:15:37.887Z,59.26
2023-03-30T09:18:21.886Z,59.07
2023-03-30T09:21:00.798Z,59.08
2023-03-30T09:23:36.793Z,59.93
2023-03-30T09:26:44.653Z,60.66
2023-03-30T09:29:22.605Z,60.69
2023-03-30T09:32:05.299Z,61.25
2023-03-30T09:34:43.912Z,61.18
2023-03-30T09:37:21.745Z,62.09
2023-03-30T09:39:55.001Z,61.91
2023-03-30T09:42:39.154Z,62.32
2023-03-30T09:45:43.439Z,61.93
2023-03-30T09:48:17.983Z,62.69
2023-03-30T09:50:50.837Z,63.15
2023-03-30T09:53:29.829Z,63.72
2023-03-30T09:56:07.506Z,63.42
2023-03-30T09:58:39.692Z,64.11
2023-03-30T10:01:21.302Z,63.50
2023-03-30T10:04:12.987Z,63.69
2023-03-30T10:06:50.891Z,63.65
2023-03-30T10:09:24.711Z,63.74
2023-03-30T10:11:58.451Z,64.27
2023-03-30T10:14:36.580Z,63.94
2023-03-30T10:17:13.407Z,63.07
2023-03-30T10:19:55.333Z,63.52
2023-03-30T10:22:26.302Z,63.25
2023-03-30T10:24:59.695Z,63.03
2023-03-30T10:27:40.044Z,62.71
2023-03-30T10:30:18.041Z,62.29
2023-03-30T10:32:52.721Z,61.89
2023-03-30T10:35:32.976Z,61.57
2023-03-30T10:38:16.113Z,61.99
2023-03-30T10:40:56.172Z,61.32
2023-03-30T10:43:34.770Z,60.72
2023-03-30T10:46:23.616Z,60.29
2023-03-30T10:49:26.308Z,59.71
2023-03-30T10:52:22.799Z,59.59
2023-03-30T10:55:00.964Z,59.87
2023-03-30T10:57:40.589Z,60.32
2023-03-30T11:00:52.976Z,61.40
2023-03-30T11:03:29.934Z,61.44
2023-03-30T11:06:28.626Z,61.89
2023-03-30T11:09:06.212Z,63.06
2023-03-30T11:11:53.331Z,62.77
2023-03-30T11:14:46.469Z,62.45
2023-03-30T11:17:34.582Z,62.08
2023-03-30T11:20:27.607Z,62.47
2023-03-30T11:23:11.534Z,62.83
2023-03-30T11:26:07.245Z,63.12
2023-03-30T11:28:46.252Z,62.80
2023-03-30T11:31:34.339Z,61.98
2023-03-30T11:34:31.706Z,60.86
2023-03-30T11:37:19.749Z,61.75
2023-03-30T11:40:18.957Z,61.58
2023-03-30T11:42:53.868Z,60.26
2023-03-30T11:45:54.795Z,58.25
2023-03-30T11:48:58.722Z,57.12
2023-03-30T11:51:42.663Z,56.91
2023-03-30T11:54:30.109Z,56.81
2023-03-30T11:57:13.702Z,56.42
2023-03-30T11:59:59.159Z,56.59
2023-03-30T12:02:48.919Z,57.96
2023-03-30T12:05:27.634Z,58.50
2023-03-30T12:08:21.299Z,58.45
2023-03-30T12:11:02.174Z,59.03
2023-03-30T12:13:48.343Z,60.17
2023-03-30T12:16:15.237Z,59.07
2023-03-30T12:19:16.550Z,60.30
2023-03-30T12:22:04.478Z,59.41
2023-03-30T12:24:41.479Z,60.13
2023-03-30T12:27:17.419Z,59.70
2023-03-30T12:30:03.188Z,59.64
2023-03-30T12:32:31.494Z,59.81
2023-03-30T12:35:25.190Z,60.45
2023-03-30T12:38:01.548Z,59.60
2023-03-30T12:40:38.405Z,60.10
2023-03-30T12:43:16.938Z,60.02
2023-03-30T12:45:58.708Z,60.27
2023-03-30T12:48:36.399Z,60.90
2023-03-30T12:51:32.723Z,61.17
2023-03-30T12:54:09.499Z,60.06
2023-03-30T12:56:55.421Z,60.54
2023-03-30T12:59:36.492Z,61.22
2023-03-30T13:02:32.771Z,60.81
2023-03-30T13:05:22.574Z,60.47
2023-03-30T13:07:57.466Z,60.54
2023-03-30T13:10:37.663Z,60.61
2023-03-30T13:13:47.208Z,60.48
2023-03-30T13:16:52.763Z,60.30
2023-03-30T13:19:42.419Z,60.85
2023-03-30T13:22:21.745Z,60.98
2023-03-30T13:25:10.867Z,61.58
2023-03-30T13:27:43.010Z,60.50
2023-03-30T13:30:16.174Z,60.55
2023-03-30T13:33:12.017Z,61.02
2023-03-30T13:35:56.346Z,60.88
2023-03-30T13:38:49.825Z,61.10
2023-03-30T13:41:28.586Z,61.32
2023-03-30T13:44:15.854Z,61.29
2023-03-30T13:47:16.429Z,61.88
2023-03-30T13:50:04.879Z,61.42
2023-03-30T13:52:42.389Z,60.46
2023-03-30T13:55:31.264Z,59.80
2023-03-30T13:58:07.104Z,59.40
2023-03-30T14:00:49.738Z,59.85
2023-03-30T14:03:44.541Z,60.56
2023-03-30T14:06:24.356Z,60.84
2023-03-30T14:09:09.655Z,62.00
2023-03-30T14:11:46.971Z,62.28
2023-03-30T14:14:32.232Z,61.91
2023-03-30T14:17:23.290Z,62.78
2023-03-30T14:20:33.143Z,62.34
2023-03-30T14:23:08.065Z,61.94
2023-03-30T14:25:42.193Z,62.07
2023-03-30T14:28:22.256Z,62.53
2023-03-30T14:30:57.806Z,63.64
2023-03-30T14:33:30.944Z,63.55
2023-03-30T14:36:05.109Z,63.24
2023-03-30T14:38:40.320Z,63.47
2023-03-30T14:41:22.994Z,63.70
2023-03-30T14:44:04.454Z,63.29
2023-03-30T14:46:49.234Z,63.36
2023-03-30T14:49:25.420Z,63.30
2023-03-30T14:52:10.970Z,63.30
2023-03-30T14:54:54.499Z,63.05
2023-03-30T14:57:24.646Z,63.72
2023-03-30T15:00:04.915Z,64.01
2023-03-30T15:02:42.359Z,64.38
2023-03-30T15:05:19.297Z,64.04
2023-03-30T15:07:53.986Z,64.52
2023-03-30T15:10:48.164Z,64.22
2023-03-30T15:13:31.248Z,63.78
2023-03-30T15:16:05.252Z,63.40
2023-03-30T15:18:37.872Z,63.64
2023-03-30T15:21:13.692Z,63.24
2023-03-30T15:23:48.756Z,63.29
2023-03-30T15:26:22.832Z,63.82
2023-03-30T15:28:58.088Z,64.19
2023-03-30T15:31:31.398Z,64.44
2023-03-30T15:34:05.566Z,64.45
2023-03-30T15:36:41.292Z,64.80
2023-03-30T15:39:23.598Z,65.15
2023-03-30T15:42:07.191Z,65.01
2023-03-30T15:44:41.794Z,65.37
2023-03-30T15:47:17.693Z,65.23
2023-03-30T15:49:52.836Z,64.89
2023-03-30T15:52:29.497Z,65.40
2023-03-30T15:55:12.781Z,65.79
2023-03-30T15:57:48.630Z,66.01
2023-03-30T16:00:31.812Z,65.99
2023-03-30T16:03:05.847Z,66.09
2023-03-30T16:05:40.784Z,66.39
2023-03-30T16:08:13.249Z,66.48
2023-03-30T16:10:46.913Z,66.05
2023-03-30T16:13:19.625Z,66.17
2023-03-30T16:15:55.293Z,66.18
2023-03-30T16:18:34.850Z,65.86
2023-03-30T16:21:11.056Z,65.44
2023-03-30T16:23:43.722Z,65.71
2023-03-30T16:26:16.352Z,65.64
2023-03-30T16:28:52.351Z,65.71
2023-03-30T16:31:25.833Z,65.68
2023-03-30T16:34:01.671Z,65.77
2023-03-30T16:36:34.909Z,65.38
2023-03-30T16:39:17.987Z,65.59
2023-03-30T16:41:52.743Z,65.39
2023-03-30T16:44:26.779Z,65.84
2023-03-30T16:46:59.894Z,65.71
2023-03-30T16:49:32.474Z,66.06
2023-03-30T16:52:06.281Z,66.69
2023-03-30T16:54:39.300Z,66.45
2023-03-30T16:57:11.739Z,66.92
2023-03-30T16:59:46.434Z,66.41
2023-03-30T17:02:20.396Z,65.87
2023-03-30T17:04:53.290Z,66.01
2023-03-30T17:07:25.874Z,66.74
2023-03-30T17:09:58.936Z,66.29
2023-03-30T17:12:33.288Z,66.83
2023-03-30T17:15:06.075Z,66.92
2023-03-30T17:17:40.085Z,66.06
2023-03-30T17:20:28.139Z,66.37
2023-03-30T17:23:00.712Z,66.06
2023-03-30T17:25:36.423Z,66.76
2023-03-30T17:28:28.267Z,66.61
2023-03-30T17:31:07.763Z,66.75
2023-03-30T17:33:42.206Z,66.67
2023-03-30T17:36:17.397Z,66.90
2023-03-30T17:38:53.008Z,66.88
2023-03-30T17:41:27.548Z,66.58
2023-03-30T17:44:02.444Z,66.36
2023-03-30T17:46:36.466Z,65.92
2023-03-30T17:49:16.472Z,65.91
2023-03-30T17:51:50.229Z,66.36
2023-03-30T17:54:24.329Z,66.31
2023-03-30T17:57:00.107Z,66.19
2023-03-30T17:59:33.365Z,66.00
2023-03-30T18:02:05.493Z,65.49
2023-03-30T18:04:38.437Z,65.70
2023-03-30T18:07:13.198Z,66.30
2023-03-30T18:09:47.694Z,66.72
2023-03-30T18:12:20.873Z,66.38
2023-03-30T18:14:53.379Z,65.65
2023-03-30T18:17:27.053Z,64.91
2023-03-30T18:20:00.846Z,65.30
2023-03-30T18:22:33.577Z,65.81
2023-03-30T18:25:06.851Z,65.56
2023-03-30T18:27:40.513Z,65.82
2023-03-30T18:30:24.809Z,65.96
2023-03-30T18:32:59.722Z,66.31
2023-03-30T18:35:35.554Z,66.31
2023-03-30T18:38:07.831Z,65.90
2023-03-30T18:40:45.819Z,65.99
2023-03-30T18:43:18.795Z,65.90
2023-03-30T18:45:51.958Z,66.19
2023-03-30T18:48:30.220Z,66.08
2023-03-30T18:51:04.619Z,65.80
2023-03-30T18:53:43.521Z,65.92
2023-03-30T18:56:20.731Z,66.22
2023-03-30T18:58:57.146Z,66.08
2023-03-30T19:01:33.997Z,66.30
2023-03-30T19:04:07.056Z,66.18
2023-03-30T19:06:41.228Z,65.87
2023-03-30T19:09:17.341Z,66.24
2023-03-30T19:11:51.124Z,66.45
2023-03-30T19:14:24.966Z,66.46
2023-03-30T19:16:59.554Z,66.59
2023-03-30T19:19:34.441Z,66.57
2023-03-30T19:22:08.838Z,66.30
2023-03-30T19:24:42.158Z,66.20
2023-03-30T19:27:17.592Z,66.12
2023-03-30T19:29:54.165Z,66.02
2023-03-30T19:32:30.338Z,66.05
2023-03-30T19:35:05.582Z,65.61
2023-03-30T19:37:40.811Z,65.64
2023-03-30T19:40:16.594Z,65.93
2023-03-30T19:42:51.455Z,66.11
2023-03-30T19:45:26.901Z,66.21
2023-03-30T19:48:04.713Z,66.06
2023-03-30T19:50:39.801Z,65.43
2023-03-30T19:53:12.624Z,65.14
2023-03-30T19:55:46.544Z,64.52
2023-03-30T19:58:19.013Z,64.97
2023-03-30T20:00:56.019Z,65.43
2023-03-30T20:03:30.262Z,65.02
2023-03-30T20:06:07.503Z,65.22
2023-03-30T20:08:40.941Z,65.49
2023-03-30T20:11:14.357Z,65.40
2023-03-30T20:13:48.045Z,65.47
2023-03-30T20:16:21.368Z,65.58
2023-03-30T20:18:56.973Z,65.51
2023-03-30T20:21:30.066Z,64.96
2023-03-30T20:24:03.463Z,65.50
2023-03-30T20:26:36.291Z,65.05
2023-03-30T20:29:11.421Z,65.18
2023-03-30T20:31:45.929Z,65.56
2023-03-30T20:34:19.454Z,65.68
2023-03-30T20:36:52.007Z,66.19
2023-03-30T20:39:25.588Z,65.49
2023-03-30T20:41:58.485Z,65.79
2023-03-30T20:44:31.328Z,65.56
2023-03-30T20:47:04.581Z,65.76
2023-03-30T20:49:39.117Z,66.02
2023-03-30T20:52:13.026Z,66.40
2023-03-30T20:54:45.298Z,66.56
2023-03-30T20:57:17.520Z,66.29
2023-03-30T20:59:50.135Z,66.41
2023-03-30T21:02:22.467Z,66.04
2023-03-30T21:04:57.469Z,66.57
2023-03-30T21:07:29.960Z,66.23
2023-03-30T21:10:02.265Z,66.44
2023-03-30T21:12:34.480Z,66.63
2023-03-30T21:15:08.308Z,66.35
2023-03-30T21:17:41.189Z,66.96
2023-03-30T21:20:14.379Z,67.34
2023-03-30T21:22:46.561Z,67.06
2023-03-30T21:25:20.249Z,66.78
2023-03-30T21:27:52.378Z,66.59
2023-03-30T21:30:24.561Z,66.55
2023-03-30T21:32:56.692Z,67.04
2023-03-30T21:35:29.699Z,67.15
2023-03-30T21:38:04.045Z,67.53
2023-03-30T21:40:36.045Z,67.08
2023-03-30T21:43:08.593Z,67.23
2023-03-30T21:45:40.645Z,67.52
2023-03-30T21:48:14.284Z,66.94
2023-03-30T21:50:46.374Z,66.49
2023-03-30T21:53:19.274Z,66.36
2023-03-30T21:55:51.900Z,66.65
2023-03-30T21:58:26.570Z,66.87
2023-03-30T22:01:11.124Z,66.53
2023-03-30T22:03:33.050Z,66.50
2023-03-30T22:06:08.174Z,66.59
2023-03-30T22:08:41.409Z,66.45
2023-03-30T22:11:16.806Z,66.11
2023-03-30T22:13:50.384Z,66.54
2023-03-30T22:16:35.396Z,66.20
2023-03-30T22:19:07.389Z,66.24
2023-03-30T22:21:39.653Z,66.23
2023-03-30T22:24:13.373Z,66.00
2023-03-30T22:26:46.089Z,66.07
2023-03-30T22:29:19.960Z,66.57
2023-03-30T22:31:54.293Z,66.62
2023-03-30T22:34:25.780Z,66.26
2023-03-30T22:36:57.698Z,65.65
2023-03-30T22:39:30.739Z,66.02
2023-03-30T22:42:03.050Z,66.06
2023-03-30T22:44:35.372Z,66.35
2023-03-30T22:47:07.419Z,66.19
2023-03-30T22:49:40.288Z,66.20
2023-03-30T22:52:12.544Z,66.54
2023-03-30T22:54:44.702Z,66.89
2023-03-30T22:57:17.005Z,67.18
2023-03-30T22:59:49.047Z,67.15
2023-03-30T23:02:21.430Z,67.34
2023-03-30T23:04:55.127Z,66.88
2023-03-30T23:07:28.801Z,66.97
2023-03-30T23:10:03.193Z,66.76
2023-03-30T23:12:35.190Z,66.52
2023-03-30T23:15:07.270Z,66.67
2023-03-30T23:17:40.081Z,66.67
2023-03-30T23:20:12.477Z,66.53
2023-03-30T23:22:44.995Z,66.55
2023-03-30T23:25:17.693Z,66.24
2023-03-30T23:27:49.734Z,66.18
2023-03-30T23:30:22.001Z,66.38
2023-03-30T23:32:54.244Z,66.63
2023-03-30T23:35:27.373Z,66.49
2023-03-30T23:37:59.345Z,66.39
2023-03-30T23:40:31.498Z,65.99
2023-03-30T23:43:03.816Z,65.99
2023-03-30T23:45:35.967Z,66.08
2023-03-30T23:48:08.336Z,66.62
2023-03-30T23:50:41.295Z,66.63
2023-03-30T23:53:13.345Z,66.43
2023-03-30T23:55:45.485Z,66.40
2023-03-30T23:58:18.542Z,66.20
